createdAt,value
2023-03-10T00:02:25.978Z,98008.88
2023-03-10T00:04:54.258Z,98021.41
2023-03-10T00:07:21.830Z,98024.13
2023-03-10T00:09:49.068Z,98033.44
2023-03-10T00:12:16.322Z,98032.69
2023-03-10T00:14:43.652Z,98033.38
2023-03-10T00:17:11.107Z,98046.22
2023-03-10T00:19:38.429Z,98065.47
2023-03-10T00:22:05.631Z,98090.88
2023-03-10T00:24:33.441Z,98088.13
2023-03-10T00:27:00.944Z,98103.63
2023-03-10T00:29:28.437Z,98107.13
2023-03-10T00:31:55.895Z,98130.44
2023-03-10T00:34:22.999Z,98126.94
2023-03-10T00:36:52.252Z,98135.81
2023-03-10T00:39:19.371Z,98122.66
2023-03-10T00:41:46.931Z,98133.25
2023-03-10T00:44:13.994Z,98149.69
2023-03-10T00:46:41.476Z,98161.75
2023-03-10T00:49:15.781Z,98166.28
2023-03-10T00:51:42.827Z,98168.41
2023-03-10T00:54:10.446Z,98173.38
2023-03-10T00:56:37.668Z,98171.03
2023-03-10T00:59:04.924Z,98178.66
2023-03-10T01:01:35.676Z,98185.25
2023-03-10T01:04:09.402Z,98196.72
2023-03-10T01:06:37.079Z,98201.69
2023-03-10T01:09:05.258Z,98201.19
2023-03-10T01:11:33.259Z,98210.56
2023-03-10T01:14:03.151Z,98216.16
2023-03-10T01:16:30.679Z,98224.28
2023-03-10T01:18:59.095Z,98212.75
2023-03-10T01:21:34.743Z,98210.44
2023-03-10T01:24:03.416Z,98208.69
2023-03-10T01:26:31.451Z,98212.47
2023-03-10T01:28:58.794Z,98223.59
2023-03-10T01:31:26.159Z,98220.81
2023-03-10T01:33:53.518Z,98227.97
2023-03-10T01:36:26.299Z,98233.09
2023-03-10T01:38:55.853Z,98231.19
2023-03-10T01:41:24.707Z,98237.56
2023-03-10T01:43:56.251Z,98239.06
2023-03-10T01:46:43.757Z,98269.59
2023-03-10T01:49:45.075Z,98269.59
2023-03-10T01:52:20.049Z,98288.03
2023-03-10T01:54:57.088Z,98299.47
2023-03-10T01:57:30.273Z,98304.19
2023-03-10T01:59:59.429Z,98303.00
2023-03-10T02:02:33.740Z,98310.31
2023-03-10T02:05:02.937Z,98320.00
2023-03-10T02:07:34.774Z,98328.69
2023-03-10T02:10:03.747Z,98341.69
2023-03-10T02:12:32.329Z,98346.25
2023-03-10T02:15:00.106Z,98347.97
2023-03-10T02:17:28.247Z,98352.47
2023-03-10T02:20:16.740Z,98349.59
2023-03-10T02:22:44.057Z,98351.31
2023-03-10T02:25:23.451Z,98344.25
2023-03-10T02:27:53.448Z,98338.97
2023-03-10T02:30:29.405Z,98342.59
2023-03-10T02:33:02.044Z,98345.13
2023-03-10T02:35:29.233Z,98350.38
2023-03-10T02:38:01.688Z,98348.94
2023-03-10T02:40:52.731Z,98356.94
2023-03-10T02:43:30.187Z,98365.47
2023-03-10T02:46:08.795Z,98369.06
2023-03-10T02:48:41.088Z,98380.31
2023-03-10T02:51:17.786Z,98390.31
2023-03-10T02:53:45.379Z,98387.56
2023-03-10T02:56:13.362Z,98393.63
2023-03-10T02:58:43.135Z,98400.53
2023-03-10T03:01:10.561Z,98408.47
2023-03-10T03:03:41.558Z,98408.41
2023-03-10T03:06:10.685Z,98407.75
2023-03-10T03:08:38.265Z,98418.16
2023-03-10T03:11:09.497Z,98421.69
2023-03-10T03:13:36.988Z,98424.38
2023-03-10T03:16:07.105Z,98418.25
2023-03-10T03:18:34.792Z,98424.28
2023-03-10T03:21:11.264Z,98433.22
2023-03-10T03:23:39.715Z,98434.88
2023-03-10T03:26:21.282Z,98437.56
2023-03-10T03:28:50.740Z,98450.63
2023-03-10T03:31:24.647Z,98459.44
2023-03-10T03:34:00.515Z,98458.53
2023-03-10T03:36:28.123Z,98464.50
2023-03-10T03:38:56.648Z,98466.63
2023-03-10T03:41:25.230Z,98470.00
2023-03-10T03:43:52.482Z,98462.84
2023-03-10T03:46:20.032Z,98472.38
2023-03-10T03:48:47.258Z,98474.13
2023-03-10T03:51:14.833Z,98473.97
2023-03-10T03:53:43.261Z,98466.09
2023-03-10T03:56:10.655Z,98469.66
2023-03-10T03:58:38.949Z,98467.94
2023-03-10T04:01:06.009Z,98474.81
2023-03-10T04:03:39.744Z,98473.97
2023-03-10T04:06:08.155Z,98471.28
2023-03-10T04:08:36.344Z,98474.00
2023-03-10T04:11:04.553Z,98474.75
2023-03-10T04:13:34.195Z,98463.53
2023-03-10T04:16:02.079Z,98474.94
2023-03-10T04:18:34.145Z,98481.94
2023-03-10T04:21:02.888Z,98485.53
2023-03-10T04:23:31.943Z,98486.34
2023-03-10T04:25:59.740Z,98483.66
2023-03-10T04:28:29.503Z,98483.56
2023-03-10T04:30:57.488Z,98484.47
2023-03-10T04:33:28.977Z,98484.81
2023-03-10T04:35:56.473Z,98481.59
2023-03-10T04:38:24.546Z,98489.56
2023-03-10T04:40:55.549Z,98480.81
2023-03-10T04:43:26.669Z,98481.53
2023-03-10T04:45:55.537Z,98480.00
2023-03-10T04:48:24.717Z,98480.59
2023-03-10T04:50:57.787Z,98481.97
2023-03-10T04:53:28.388Z,98489.81
2023-03-10T04:55:56.380Z,98486.88
2023-03-10T04:58:24.125Z,98485.22
2023-03-10T05:01:02.465Z,98493.22
2023-03-10T05:03:32.862Z,98502.66
2023-03-10T05:06:01.017Z,98504.53
2023-03-10T05:08:29.050Z,98503.03
2023-03-10T05:10:56.208Z,98515.41
2023-03-10T05:13:23.811Z,98513.50
2023-03-10T05:15:51.400Z,98524.19
2023-03-10T05:18:18.785Z,98530.66
2023-03-10T05:20:46.399Z,98534.97
2023-03-10T05:23:14.217Z,98527.28
2023-03-10T05:25:41.811Z,98528.78
2023-03-10T05:28:09.594Z,98541.03
2023-03-10T05:30:38.106Z,98543.28
2023-03-10T05:33:05.844Z,98545.09
2023-03-10T05:35:34.109Z,98552.25
2023-03-10T05:38:02.265Z,98560.50
2023-03-10T05:40:29.632Z,98557.59
2023-03-10T05:42:57.655Z,98569.78
2023-03-10T05:45:25.181Z,98583.53
2023-03-10T05:47:53.176Z,98581.13
2023-03-10T05:50:20.545Z,98580.41
2023-03-10T05:52:48.056Z,98579.69
2023-03-10T05:55:18.616Z,98572.00
2023-03-10T05:57:46.996Z,98575.53
2023-03-10T06:00:16.001Z,98565.94
2023-03-10T06:02:52.542Z,98573.75
2023-03-10T06:05:20.157Z,98570.34
2023-03-10T06:07:47.593Z,98549.81
2023-03-10T06:10:15.193Z,98540.81
2023-03-10T06:12:43.270Z,98532.75
2023-03-10T06:15:12.019Z,98544.75
2023-03-10T06:17:40.138Z,98537.44
2023-03-10T06:20:07.713Z,98543.84
2023-03-10T06:22:35.632Z,98532.78
2023-03-10T06:25:12.458Z,98523.66
2023-03-10T06:27:41.171Z,98514.34
2023-03-10T06:30:09.017Z,98506.06
2023-03-10T06:32:37.201Z,98513.66
2023-03-10T06:35:05.769Z,98514.53
2023-03-10T06:37:33.690Z,98510.34
2023-03-10T06:40:01.652Z,98523.44
2023-03-10T06:42:29.425Z,98528.38
2023-03-10T06:44:56.954Z,98535.03
2023-03-10T06:47:25.923Z,98543.28
2023-03-10T06:49:56.576Z,98543.19
2023-03-10T06:52:25.431Z,98533.81
2023-03-10T06:54:53.135Z,98563.50
2023-03-10T06:57:21.112Z,98589.63
2023-03-10T06:59:49.425Z,98604.31
2023-03-10T07:02:20.065Z,98617.25
2023-03-10T07:04:47.831Z,98616.31
2023-03-10T07:07:15.504Z,98606.09
2023-03-10T07:09:43.425Z,98619.53
2023-03-10T07:12:10.937Z,98618.72
2023-03-10T07:14:38.154Z,98621.19
2023-03-10T07:17:05.706Z,98623.00
2023-03-10T07:19:33.517Z,98605.44
2023-03-10T07:22:01.205Z,98606.50
2023-03-10T07:24:30.331Z,98606.44
2023-03-10T07:27:01.340Z,98600.28
2023-03-10T07:29:30.493Z,98605.06
2023-03-10T07:31:58.534Z,98596.47
2023-03-10T07:34:26.414Z,98591.13
2023-03-10T07:36:55.202Z,98594.31
2023-03-10T07:39:23.938Z,98598.53
2023-03-10T07:41:51.447Z,98606.34
2023-03-10T07:44:18.929Z,98602.94
2023-03-10T07:46:46.709Z,98618.88
2023-03-10T07:49:14.283Z,98645.25
2023-03-10T07:51:41.941Z,98632.28
2023-03-10T07:54:12.493Z,98634.41
2023-03-10T07:56:40.842Z,98636.84
2023-03-10T07:59:09.008Z,98627.88
2023-03-10T08:01:37.368Z,98627.25
2023-03-10T08:04:05.674Z,98609.50
2023-03-10T08:06:36.035Z,98604.88
2023-03-10T08:09:03.691Z,98596.63
2023-03-10T08:11:32.649Z,98599.38
2023-03-10T08:14:02.170Z,98608.25
2023-03-10T08:16:30.201Z,98593.41
2023-03-10T08:18:58.279Z,98584.22
2023-03-10T08:21:26.888Z,98587.28
2023-03-10T08:23:55.065Z,98586.84
2023-03-10T08:26:23.165Z,98580.25
2023-03-10T08:28:51.192Z,98573.88
2023-03-10T08:31:21.760Z,98562.00
2023-03-10T08:33:51.145Z,98560.25
2023-03-10T08:36:21.418Z,98566.34
2023-03-10T08:38:51.427Z,98562.22
2023-03-10T08:41:31.537Z,98565.25
2023-03-10T08:44:00.847Z,98572.88
2023-03-10T08:46:32.370Z,98570.13
2023-03-10T08:49:00.371Z,98562.19
2023-03-10T08:51:31.776Z,98556.91
2023-03-10T08:54:00.496Z,98559.38
2023-03-10T08:56:28.366Z,98566.16
2023-03-10T08:58:59.385Z,98559.06
2023-03-10T09:01:31.381Z,98552.78
2023-03-10T09:04:01.164Z,98556.41
2023-03-10T09:06:29.696Z,98555.00
2023-03-10T09:08:57.842Z,98560.09
2023-03-10T09:11:35.883Z,98571.59
2023-03-10T09:14:05.591Z,98559.75
2023-03-10T09:16:35.556Z,98555.91
2023-03-10T09:19:04.817Z,98540.84
2023-03-10T09:21:34.729Z,98523.06
2023-03-10T09:24:05.806Z,98531.31
2023-03-10T09:26:34.864Z,98548.13
2023-03-10T09:29:03.658Z,98559.72
2023-03-10T09:31:34.715Z,98561.78
2023-03-10T09:34:04.657Z,98566.22
2023-03-10T09:36:33.361Z,98565.63
2023-03-10T09:39:02.309Z,98584.81
2023-03-10T09:42:10.897Z,98586.00
2023-03-10T09:45:04.676Z,98593.75
2023-03-10T09:47:48.148Z,98595.19
2023-03-10T09:50:15.433Z,98590.81
2023-03-10T09:52:56.980Z,98576.56
2023-03-10T09:55:38.249Z,98568.06
2023-03-10T09:58:29.911Z,98561.44
2023-03-10T10:01:01.552Z,98548.97
2023-03-10T10:03:43.001Z,98552.06
2023-03-10T10:06:28.740Z,98545.97
2023-03-10T10:09:05.753Z,98562.94
2023-03-10T10:11:39.934Z,98549.44
2023-03-10T10:14:29.288Z,98544.00
2023-03-10T10:17:32.516Z,98528.47
2023-03-10T10:20:06.591Z,98531.69
2023-03-10T10:22:38.293Z,98544.44
2023-03-10T10:25:09.030Z,98563.72
2023-03-10T10:27:39.053Z,98561.94
2023-03-10T10:30:27.365Z,98549.03
2023-03-10T10:33:00.619Z,98555.41
2023-03-10T10:35:41.235Z,98553.84
2023-03-10T10:38:12.297Z,98556.13
2023-03-10T10:40:53.440Z,98549.47
2023-03-10T10:43:23.570Z,98547.81
2023-03-10T10:45:57.607Z,98539.19
2023-03-10T10:48:37.302Z,98535.22
2023-03-10T10:51:19.219Z,98531.13
2023-03-10T10:53:47.632Z,98516.63
2023-03-10T10:56:18.933Z,98518.41
2023-03-10T10:59:21.362Z,98520.84
2023-03-10T11:01:51.393Z,98512.97
2023-03-10T11:04:24.021Z,98518.47
2023-03-10T11:06:53.397Z,98522.38
2023-03-10T11:09:24.137Z,98518.72
2023-03-10T11:12:14.750Z,98525.13
2023-03-10T11:15:02.430Z,98518.31
2023-03-10T11:17:35.576Z,98514.81
2023-03-10T11:20:26.765Z,98513.75
2023-03-10T11:23:19.148Z,98504.31
2023-03-10T11:26:01.969Z,98498.00
2023-03-10T11:29:02.099Z,98508.31
2023-03-10T11:31:45.772Z,98512.81
2023-03-10T11:34:21.040Z,98515.34
2023-03-10T11:37:10.356Z,98514.03
2023-03-10T11:39:53.274Z,98514.63
2023-03-10T11:42:38.887Z,98501.06
2023-03-10T11:45:13.626Z,98513.28
2023-03-10T11:47:56.384Z,98515.78
2023-03-10T11:50:40.300Z,98511.97
2023-03-10T11:53:27.262Z,98510.19
2023-03-10T11:55:57.273Z,98500.94
2023-03-10T11:58:28.085Z,98494.31
2023-03-10T12:00:56.719Z,98498.81
2023-03-10T12:03:56.875Z,98490.94
2023-03-10T12:06:32.740Z,98492.75
2023-03-10T12:09:03.241Z,98494.78
2023-03-10T12:11:32.265Z,98502.28
2023-03-10T12:14:01.955Z,98498.44
2023-03-10T12:16:33.938Z,98493.78
2023-03-10T12:19:02.712Z,98490.31
2023-03-10T12:21:32.486Z,98490.31
2023-03-10T12:24:05.803Z,98492.63
2023-03-10T12:26:40.025Z,98487.03
2023-03-10T12:29:25.044Z,98473.41
2023-03-10T12:31:55.580Z,98474.00
2023-03-10T12:34:29.202Z,98478.47
2023-03-10T12:37:11.351Z,98474.97
2023-03-10T12:39:46.469Z,98475.41
2023-03-10T12:42:31.137Z,98480.72
2023-03-10T12:45:07.900Z,98469.91
2023-03-10T12:47:46.987Z,98473.88
2023-03-10T12:50:57.052Z,98473.91
2023-03-10T12:53:29.121Z,98474.66
2023-03-10T12:56:20.449Z,98473.03
2023-03-10T12:58:58.694Z,98479.28
2023-03-10T13:01:55.802Z,98476.75
2023-03-10T13:04:26.185Z,98469.44
2023-03-10T13:07:04.262Z,98474.81
2023-03-10T13:09:44.067Z,98470.34
2023-03-10T13:12:36.545Z,98458.84
2023-03-10T13:15:09.006Z,98456.47
2023-03-10T13:17:37.740Z,98454.56
2023-03-10T13:20:18.282Z,98451.31
2023-03-10T13:22:58.112Z,98453.06
2023-03-10T13:25:28.277Z,98441.72
2023-03-10T13:27:58.831Z,98438.25
2023-03-10T13:30:28.261Z,98428.66
2023-03-10T13:33:02.826Z,98438.00
2023-03-10T13:35:37.335Z,98431.66
2023-03-10T13:38:13.828Z,98431.84
2023-03-10T13:40:48.083Z,98432.56
2023-03-10T13:43:42.582Z,98436.47
2023-03-10T13:46:20.128Z,98428.09
2023-03-10T13:48:49.155Z,98422.63
2023-03-10T13:51:32.097Z,98417.81
2023-03-10T13:54:25.083Z,98428.88
2023-03-10T13:56:57.171Z,98429.53
2023-03-10T13:59:29.481Z,98424.03
2023-03-10T14:01:58.517Z,98425.97
2023-03-10T14:04:46.291Z,98423.84
2023-03-10T14:07:23.747Z,98428.31
2023-03-10T14:10:08.667Z,98420.53
2023-03-10T14:12:54.788Z,98422.78
2023-03-10T14:15:39.790Z,98427.03
2023-03-10T14:18:11.204Z,98418.44
2023-03-10T14:20:43.179Z,98413.88
2023-03-10T14:23:26.766Z,98418.50
2023-03-10T14:25:56.847Z,98415.81
2023-03-10T14:28:34.516Z,98410.97
2023-03-10T14:31:06.895Z,98409.50
2023-03-10T14:33:35.063Z,98407.88
2023-03-10T14:36:03.819Z,98401.03
2023-03-10T14:38:32.296Z,98392.31
2023-03-10T14:41:00.458Z,98388.06
2023-03-10T14:43:30.020Z,98383.50
2023-03-10T14:46:02.187Z,98386.34
2023-03-10T14:48:38.051Z,98367.97
2023-03-10T14:51:07.314Z,98363.28
2023-03-10T14:53:34.890Z,98365.91
2023-03-10T14:56:03.654Z,98362.38
2023-03-10T14:58:45.845Z,98356.47
2023-03-10T15:01:14.202Z,98356.91
2023-03-10T15:03:42.645Z,98351.66
2023-03-10T15:06:13.830Z,98350.16
2023-03-10T15:08:42.220Z,98353.09
2023-03-10T15:11:10.241Z,98348.13
2023-03-10T15:13:39.573Z,98341.56
2023-03-10T15:16:07.800Z,98353.63
2023-03-10T15:18:35.861Z,98346.94
2023-03-10T15:21:03.744Z,98348.38
2023-03-10T15:23:31.282Z,98340.81
2023-03-10T15:26:00.030Z,98344.66
2023-03-10T15:28:27.743Z,98344.34
2023-03-10T15:30:55.908Z,98341.47
2023-03-10T15:33:24.477Z,98343.50
2023-03-10T15:35:53.794Z,98341.41
2023-03-10T15:38:22.632Z,98340.00
2023-03-10T15:40:50.826Z,98338.63
2023-03-10T15:43:18.783Z,98338.09
2023-03-10T15:45:50.654Z,98338.41
2023-03-10T15:48:20.192Z,98338.78
2023-03-10T15:50:48.427Z,98336.56
2023-03-10T15:53:19.023Z,98344.25
2023-03-10T15:55:48.628Z,98345.56
2023-03-10T15:58:16.699Z,98334.66
2023-03-10T16:00:45.483Z,98340.31
2023-03-10T16:03:18.090Z,98340.50
2023-03-10T16:05:48.813Z,98340.91
2023-03-10T16:08:20.757Z,98345.78
2023-03-10T16:10:55.683Z,98339.94
2023-03-10T16:13:24.156Z,98331.53
2023-03-10T16:15:53.170Z,98331.00
2023-03-10T16:18:20.858Z,98337.34
2023-03-10T16:20:56.623Z,98337.63
2023-03-10T16:23:23.871Z,98334.44
2023-03-10T16:26:04.865Z,98333.69
2023-03-10T16:28:33.075Z,98327.72
2023-03-10T16:31:01.014Z,98343.63
2023-03-10T16:33:30.135Z,98338.53
2023-03-10T16:36:02.422Z,98344.97
2023-03-10T16:38:30.499Z,98338.06
2023-03-10T16:40:58.622Z,98338.97
2023-03-10T16:43:29.091Z,98345.16
2023-03-10T16:46:10.054Z,98343.53
2023-03-10T16:48:42.352Z,98336.59
2023-03-10T16:51:29.789Z,98345.47
2023-03-10T16:54:00.574Z,98339.34
2023-03-10T16:56:29.297Z,98330.78
2023-03-10T16:58:57.900Z,98337.78
2023-03-10T17:01:25.862Z,98342.06
2023-03-10T17:03:54.691Z,98330.84
2023-03-10T17:06:26.067Z,98331.81
2023-03-10T17:08:53.828Z,98325.66
2023-03-10T17:11:27.711Z,98324.81
2023-03-10T17:13:57.231Z,98328.28
2023-03-10T17:16:28.530Z,98329.00
2023-03-10T17:19:01.486Z,98336.06
2023-03-10T17:21:33.479Z,98328.22
2023-03-10T17:24:00.862Z,98330.00
2023-03-10T17:26:28.035Z,98322.22
2023-03-10T17:28:56.099Z,98320.56
2023-03-10T17:31:26.422Z,98314.31
2023-03-10T17:33:56.165Z,98320.28
2023-03-10T17:36:23.511Z,98325.47
2023-03-10T17:38:55.452Z,98315.88
2023-03-10T17:41:23.263Z,98312.41
2023-03-10T17:43:51.344Z,98309.78
2023-03-10T17:46:24.905Z,98311.59
2023-03-10T17:48:53.139Z,98308.06
2023-03-10T17:51:23.831Z,98296.78
2023-03-10T17:53:52.132Z,98298.59
2023-03-10T17:56:19.737Z,98303.88
2023-03-10T17:58:47.025Z,98296.84
2023-03-10T18:01:20.279Z,98303.94
2023-03-10T18:03:48.583Z,98309.16
2023-03-10T18:06:20.087Z,98299.59
2023-03-10T18:08:47.382Z,98293.47
2023-03-10T18:11:15.933Z,98283.78
2023-03-10T18:13:43.745Z,98289.81
2023-03-10T18:16:23.215Z,98285.44
2023-03-10T18:18:50.908Z,98280.97
2023-03-10T18:21:19.604Z,98279.97
2023-03-10T18:23:48.259Z,98279.97
2023-03-10T18:26:18.479Z,98273.03
2023-03-10T18:28:46.358Z,98280.81
2023-03-10T18:31:28.450Z,98273.66
2023-03-10T18:33:56.093Z,98269.97
2023-03-10T18:36:25.096Z,98275.91
2023-03-10T18:38:53.555Z,98264.38
2023-03-10T18:41:23.726Z,98255.34
2023-03-10T18:43:51.888Z,98243.75
2023-03-10T18:46:19.690Z,98247.84
2023-03-10T18:48:47.506Z,98246.75
2023-03-10T18:51:15.243Z,98243.06
2023-03-10T18:53:42.555Z,98236.69
2023-03-10T18:56:10.895Z,98232.28
2023-03-10T18:58:38.052Z,98231.13
2023-03-10T19:01:11.409Z,98223.09
2023-03-10T19:03:39.233Z,98210.84
2023-03-10T19:06:07.884Z,98212.34
2023-03-10T19:08:36.508Z,98210.38
2023-03-10T19:11:05.519Z,98203.19
2023-03-10T19:13:33.356Z,98197.19
2023-03-10T19:16:04.706Z,98198.91
2023-03-10T19:18:31.842Z,98202.19
2023-03-10T19:21:00.338Z,98202.25
2023-03-10T19:23:28.199Z,98199.56
2023-03-10T19:25:55.952Z,98198.72
2023-03-10T19:28:23.480Z,98194.44
2023-03-10T19:30:50.817Z,98184.00
2023-03-10T19:33:18.082Z,98182.09
2023-03-10T19:35:45.835Z,98191.78
2023-03-10T19:38:13.362Z,98183.03
2023-03-10T19:40:41.635Z,98175.31
2023-03-10T19:43:10.589Z,98169.25
2023-03-10T19:45:38.067Z,98170.97
2023-03-10T19:48:05.943Z,98166.50
2023-03-10T19:50:33.065Z,98166.69
2023-03-10T19:53:00.220Z,98166.56
2023-03-10T19:55:27.736Z,98174.25
2023-03-10T19:57:56.148Z,98171.56
2023-03-10T20:00:31.394Z,98168.75
2023-03-10T20:02:58.911Z,98163.53
2023-03-10T20:05:27.063Z,98159.03
2023-03-10T20:07:54.782Z,98165.25
2023-03-10T20:10:22.470Z,98161.81
2023-03-10T20:12:51.577Z,98157.34
2023-03-10T20:15:19.849Z,98155.50
2023-03-10T20:17:47.064Z,98151.03
2023-03-10T20:20:15.788Z,98151.09
2023-03-10T20:22:45.862Z,98148.31
2023-03-10T20:25:15.911Z,98147.28
2023-03-10T20:27:45.262Z,98138.44
2023-03-10T20:30:25.375Z,98133.19
2023-03-10T20:32:52.783Z,98135.88
2023-03-10T20:35:20.429Z,98143.78
2023-03-10T20:37:49.655Z,98134.13
2023-03-10T20:40:23.110Z,98135.75
2023-03-10T20:43:02.320Z,98133.13
2023-03-10T20:45:30.240Z,98126.28
2023-03-10T20:47:58.391Z,98121.81
2023-03-10T20:50:26.096Z,98124.63
2023-03-10T20:52:53.340Z,98120.16
2023-03-10T20:55:25.051Z,98122.59
2023-03-10T20:57:54.433Z,98118.22
2023-03-10T21:00:24.710Z,98105.22
2023-03-10T21:02:56.266Z,98103.25
2023-03-10T21:05:26.320Z,98100.44
2023-03-10T21:07:54.000Z,98093.94
2023-03-10T21:10:22.164Z,98087.72
2023-03-10T21:12:50.673Z,98093.53
2023-03-10T21:15:19.528Z,98080.38
2023-03-10T21:17:47.404Z,98077.44
2023-03-10T21:20:20.725Z,98072.25
2023-03-10T21:22:48.006Z,98073.16
2023-03-10T21:25:21.755Z,98084.16
2023-03-10T21:27:51.490Z,98084.16
2023-03-10T21:30:21.584Z,98078.91
2023-03-10T21:32:49.050Z,98077.16
2023-03-10T21:35:17.979Z,98076.28
2023-03-10T21:37:47.606Z,98078.78
2023-03-10T21:40:18.293Z,98080.34
2023-03-10T21:42:46.887Z,98072.50
2023-03-10T21:45:17.002Z,98074.91
2023-03-10T21:47:44.497Z,98066.25
2023-03-10T21:50:13.295Z,98068.72
2023-03-10T21:52:41.369Z,98066.75
2023-03-10T21:55:14.039Z,98064.78
2023-03-10T21:57:41.296Z,98059.47
2023-03-10T22:00:09.617Z,98056.69
2023-03-10T22:02:37.477Z,98053.94
2023-03-10T22:05:06.386Z,98052.88
2023-03-10T22:07:34.023Z,98057.13
2023-03-10T22:10:01.596Z,98053.94
2023-03-10T22:12:29.127Z,98047.78
2023-03-10T22:14:56.541Z,98048.34
2023-03-10T22:17:26.021Z,98045.50
2023-03-10T22:19:56.857Z,98038.41
2023-03-10T22:22:24.356Z,98038.69
2023-03-10T22:24:51.568Z,98034.84
2023-03-10T22:27:18.827Z,98026.53
2023-03-10T22:29:46.777Z,98030.56
2023-03-10T22:32:15.250Z,98029.88
2023-03-10T22:34:43.237Z,98025.03
2023-03-10T22:37:10.988Z,98012.53
2023-03-10T22:39:38.865Z,98021.09
2023-03-10T22:42:07.197Z,98013.06
2023-03-10T22:44:36.788Z,98018.00
2023-03-10T22:47:04.789Z,98012.44
2023-03-10T22:49:33.016Z,98016.84
2023-03-10T22:52:03.963Z,98010.66
2023-03-10T22:54:31.600Z,98016.22
2023-03-10T22:56:58.812Z,98011.84
2023-03-10T22:59:26.449Z,98016.63
2023-03-10T23:01:53.788Z,98014.78
2023-03-10T23:04:21.188Z,98020.94
2023-03-10T23:06:50.321Z,98013.94
2023-03-10T23:09:18.308Z,98021.00
2023-03-10T23:11:47.200Z,98018.22
2023-03-10T23:14:15.270Z,98007.88
2023-03-10T23:16:42.598Z,98016.47
2023-03-10T23:19:11.227Z,98009.75
2023-03-10T23:21:42.814Z,98005.34
2023-03-10T23:24:10.988Z,98004.56
2023-03-10T23:26:41.865Z,98004.03
2023-03-10T23:29:12.030Z,97998.94
2023-03-10T23:31:45.260Z,97994.78
2023-03-10T23:34:17.461Z,97982.59
2023-03-10T23:36:47.141Z,97991.16
2023-03-10T23:39:20.354Z,97988.75
2023-03-10T23:41:50.273Z,97982.00
2023-03-10T23:44:22.581Z,97971.56
2023-03-10T23:46:57.908Z,97969.88
2023-03-10T23:49:29.796Z,97970.69
2023-03-10T23:51:59.142Z,97971.72
2023-03-10T23:54:28.377Z,97963.84
2023-03-10T23:56:55.372Z,97964.00
2023-03-10T23:59:24.707Z,97947.09
